Main page
METAR-TAF:

METAR-TAF

Airports :

Aérodrome de Dax - Seyresse

Dax, France

latitude: 43-41N, longitude: 001-04W, elevation: 32 m

Current weather observation

The report was made 30 minutes ago, at 23:30 UTC
Wind 4 kt from the East/Northeast
Temperature 7°C
Humidity 93%
Pressure 1016 hPa
Visibility: 9000 m

METAR: LFBY 242330Z AUTO 06004KT 9000 // ////// 07/06 Q1016

Time: 01:00 (00:00 UTC)

Forecast

The report was made 16 hours and 0 minutes ago, at 08:00 UTC
Forecast valid from 24 at 09 UTC to 24 at 18 UTC
Wind 3 kt from the East/Northeast
Visibility: 7000 m

TAF: LFBY 240800Z 2409/2418 07003KT 7000 NSC

Weather observations and forecasts of more than 4000 airports (METAR and TAF reports).

The available stations are represented by yellow and red dots on the map.

Hover mouse over dot to see the name of the station.

Then click to see weather observations and forecasts.

To change the map : click on the green buttons with a black cross to zoom in, on the green button with a dash to zoom out, or on the green arrows for adjacent maps.


METAR-TAF: